Wednesday, June 20, 2018, 3:38 AM EDT
Back to Local

KUNV, State College, University Park Airport

Location: State College, PA, United States Lat: 40.85
Local Time: 3:38 AM EDT ( 7:38 GMT) Lon: -77.85
Time Zone: US/Eastern Elev: 1240 ft

Show me the last for .
Show Decoded

2018-06-20 03:15 METAR KUNV 200715Z AUTO 00000KT 10SM CLR 17/15 A2994 RMK AO2 T01670145 =
2018-06-20 02:55 METAR KUNV 200655Z AUTO 00000KT 10SM CLR 17/14 A2994 RMK AO2 T01720141 =
2018-06-20 02:35 METAR KUNV 200635Z AUTO 04003KT 10SM CLR 18/14 A2994 RMK AO2 T01750142 =
2018-06-20 02:15 METAR KUNV 200615Z AUTO 00000KT 10SM CLR 18/14 A2994 RMK AO2 T01750141 =
2018-06-20 01:55 METAR KUNV 200555Z AUTO 10SM SCT065 SCT075 18/14 A2995 RMK AO2 T01760140 10236
                 20169 =
2018-06-20 01:35 METAR KUNV 200535Z AUTO 00000KT 10SM CLR 18/15 A2994 RMK AO2 T01770145 =
2018-06-20 01:15 METAR KUNV 200515Z AUTO 36003KT 10SM CLR 19/14 A2995 RMK AO2 T01850142 =
2018-06-20 00:55 METAR KUNV 200455Z AUTO 04003KT 10SM SCT065 SCT085 19/14 A2995 RMK AO2 T01860141
                 =
2018-06-20 00:35 METAR KUNV 200435Z AUTO 00000KT 10SM CLR 19/14 A2995 RMK AO2 T01870143 =
2018-06-20 00:15 METAR KUNV 200415Z AUTO 03003KT 10SM CLR 19/14 A2995 RMK AO2 T01930142 =
2018-06-19 23:55 METAR KUNV 200355Z AUTO 02003KT 10SM CLR 20/15 A2995 RMK AO2 T01950153 402730195
                 =
2018-06-19 23:35 METAR KUNV 200335Z AUTO 36003KT 10SM CLR 20/15 A2994 RMK AO2 T01990147 =
2018-06-19 23:15 METAR KUNV 200315Z AUTO 10SM SCT120 21/14 A2994 RMK AO2 T02050136 =
2018-06-19 22:55 METAR KUNV 200255Z AUTO 00000KT 10SM SCT120 21/13 A2995 RMK AO2 T02100126 =
2018-06-19 22:35 METAR KUNV 200235Z AUTO 00000KT 10SM CLR 21/14 A2995 RMK AO2 T02050136 =
2018-06-19 22:15 METAR KUNV 200215Z AUTO 10SM CLR 20/14 A2995 RMK AO2 T02010137 =
2018-06-19 21:53 METAR KUNV 200153Z 07003KT 10SM SKC 21/13 A2995 =
2018-06-19 20:53 METAR KUNV 200053Z 07003KT 10SM SKC 22/14 A2994 =
2018-06-19 19:53 METAR KUNV 192353Z 07003KT 10SM SKC 23/15 A2992 =
2018-06-19 18:53 METAR KUNV 192253Z 04005KT 10SM SCT070 26/14 A2992 =
2018-06-19 17:53 METAR KUNV 192153Z 02006KT 10SM SCT050 27/15 A2991 =
2018-06-19 16:53 METAR KUNV 192053Z 02006KT 10SM SCT050 27/15 A2992 =
2018-06-19 15:53 METAR KUNV 191953Z 02008KT 10SM SCT040 SCT050 27/17 A2992 =
2018-06-19 14:53 METAR KUNV 191853Z 05006KT 10SM SCT037 26/17 A2993 =
2018-06-19 13:53 METAR KUNV 191753Z 07006KT 10SM SCT037 25/18 A2995 =
2018-06-19 13:30 METAR KUNV 191730Z 06008KT 10SM SCT030 BKN039 24/18 A2995 =
2018-06-19 12:53 METAR KUNV 191653Z 06008KT 10SM BKN026 BKN034 23/18 A2995 =
2018-06-19 12:29 METAR KUNV 191629Z COR 03008KT 10SM SCT026 BKN030 23/18 A2995 =
2018-06-19 11:53 METAR KUNV 191553Z 06010KT 10SM OVC015 23/19 A2995 =
2018-06-19 10:53 METAR KUNV 191453Z 05008KT 10SM BKN012 OVC019 21/19 A2995 =
2018-06-19 09:53 METAR KUNV 191353Z 04005KT 10SM SCT007 BKN020 OVC038 23/21 A2993 =
2018-06-19 08:53 METAR KUNV 191253Z 05006KT 7SM SCT011 BKN025 OVC030 22/21 A2992 =
2018-06-19 08:15 METAR KUNV 191215Z 00000KT 6SM BR SCT006 BKN023 OVC030 22/22 A2991 =
2018-06-19 07:53 METAR KUNV 191153Z 22005KT 10SM BKN034 OVC043 22/22 A2991 =
2018-06-19 06:53 METAR KUNV 191053Z 19004KT 10SM BKN085 BKN120 21/21 A2990 =
2018-06-19 05:53 METAR KUNV 190953Z 18004KT 7SM SCT047 SCT065 BKN075 21/21 A2990 =
2018-06-19 05:35 METAR KUNV 190935Z AUTO 19003KT 5SM RA SCT046 BKN065 OVC090 22/21 A2990 RMK AO2
                 P0002 T02150213 =
2018-06-19 05:15 METAR KUNV 190915Z AUTO 20004KT 5SM -RA SCT028 BKN090 OVC110 22/21 A2990 RMK AO2
                 P0001 T02150213 =
2018-06-19 04:55 METAR KUNV 190855Z AUTO 00000KT 7SM -RA SCT080 BKN090 OVC120 22/21 A2990 RMK AO2
                 T02150212 =
2018-06-19 04:35 METAR KUNV 190835Z AUTO 23005KT 10SM VCTSRA BKN070 OVC080 22/21 A2989 RMK AO2
                 P0001 T02200213 =
2018-06-19 04:15 METAR KUNV 190815Z AUTO 25007KT 10SM SCT011 BKN060 OVC090 22/21 A2989 RMK AO2
                 LTG DSNT S AND SW T02160212 =
2018-06-19 03:55 METAR KUNV 190755Z AUTO 21006KT 10SM SCT011 BKN060 OVC075 22/21 A2989 RMK AO2
                 T02170212 =

Support USWX by starting your Amazon purchase here.